sensor_id;sensor_type;location;lat;lon;timestamp;pressure;altitude;pressure_sealevel;temperature;humidity
74370;BME280;71062;44.520;11.342;2023-11-19T00:01:22;101798.38;;;8.32;75.02
74370;BME280;71062;44.520;11.342;2023-11-19T00:03:48;101783.19;;;8.21;75.11
74370;BME280;71062;44.520;11.342;2023-11-19T00:06:15;101761.41;;;8.12;78.62
74370;BME280;71062;44.520;11.342;2023-11-19T00:08:42;101764.13;;;8.30;75.29
74370;BME280;71062;44.520;11.342;2023-11-19T00:11:09;101757.47;;;8.31;74.33
74370;BME280;71062;44.520;11.342;2023-11-19T00:13:34;101750.53;;;8.04;75.93
74370;BME280;71062;44.520;11.342;2023-11-19T00:16:00;101749.16;;;7.94;77.01
74370;BME280;71062;44.520;11.342;2023-11-19T00:18:25;101748.66;;;7.86;78.22
74370;BME280;71062;44.520;11.342;2023-11-19T00:20:51;101749.53;;;7.86;77.84
74370;BME280;71062;44.520;11.342;2023-11-19T00:23:16;101732.47;;;7.76;78.77
74370;BME280;71062;44.520;11.342;2023-11-19T00:25:42;101752.50;;;7.73;79.28
74370;BME280;71062;44.520;11.342;2023-11-19T00:28:07;101748.94;;;7.66;78.35
74370;BME280;71062;44.520;11.342;2023-11-19T00:30:33;101738.84;;;7.65;77.22
74370;BME280;71062;44.520;11.342;2023-11-19T00:32:59;101754.09;;;7.69;78.00
74370;BME280;71062;44.520;11.342;2023-11-19T00:35:24;101757.03;;;7.74;77.99
74370;BME280;71062;44.520;11.342;2023-11-19T00:37:50;101744.59;;;7.70;79.15
74370;BME280;71062;44.520;11.342;2023-11-19T00:40:16;101757.78;;;7.81;79.19
74370;BME280;71062;44.520;11.342;2023-11-19T00:42:43;101762.25;;;7.71;80.31
74370;BME280;71062;44.520;11.342;2023-11-19T00:45:09;101739.41;;;7.56;78.56
74370;BME280;71062;44.520;11.342;2023-11-19T00:47:35;101765.81;;;7.78;81.05
74370;BME280;71062;44.520;11.342;2023-11-19T00:50:02;101741.03;;;7.63;81.88
74370;BME280;71062;44.520;11.342;2023-11-19T00:52:28;101735.31;;;7.58;82.30
74370;BME280;71062;44.520;11.342;2023-11-19T00:54:54;101727.25;;;7.50;82.77
74370;BME280;71062;44.520;11.342;2023-11-19T00:57:19;101737.63;;;7.61;81.67
74370;BME280;71062;44.520;11.342;2023-11-19T00:59:45;101736.16;;;7.59;80.87
74370;BME280;71062;44.520;11.342;2023-11-19T01:02:12;101715.00;;;7.33;80.28
74370;BME280;71062;44.520;11.342;2023-11-19T01:04:39;101761.38;;;7.70;80.11
74370;BME280;71062;44.520;11.342;2023-11-19T01:07:05;101759.97;;;7.79;80.08
74370;BME280;71062;44.520;11.342;2023-11-19T01:09:38;101747.41;;;7.52;80.65
74370;BME280;71062;44.520;11.342;2023-11-19T01:12:03;101774.63;;;7.45;80.97
74370;BME280;71062;44.520;11.342;2023-11-19T01:14:30;101784.13;;;7.44;80.96
74370;BME280;71062;44.520;11.342;2023-11-19T01:16:56;101786.94;;;7.26;82.13
74370;BME280;71062;44.520;11.342;2023-11-19T01:19:24;101782.44;;;7.43;81.82
74370;BME280;71062;44.520;11.342;2023-11-19T01:21:50;101774.25;;;7.42;84.11
74370;BME280;71062;44.520;11.342;2023-11-19T01:24:16;101755.88;;;7.34;82.59
74370;BME280;71062;44.520;11.342;2023-11-19T01:26:43;101757.47;;;7.42;83.36
74370;BME280;71062;44.520;11.342;2023-11-19T01:29:11;101757.09;;;7.38;83.27
74370;BME280;71062;44.520;11.342;2023-11-19T01:31:47;101743.13;;;7.20;83.79
74370;BME280;71062;44.520;11.342;2023-11-19T01:34:13;101749.66;;;7.14;83.99
74370;BME280;71062;44.520;11.342;2023-11-19T01:36:39;101756.97;;;7.15;85.01
74370;BME280;71062;44.520;11.342;2023-11-19T01:39:05;101751.28;;;7.04;86.17
74370;BME280;71062;44.520;11.342;2023-11-19T01:41:34;101703.84;;;6.79;84.16
74370;BME280;71062;44.520;11.342;2023-11-19T01:44:01;101745.59;;;7.28;84.49
74370;BME280;71062;44.520;11.342;2023-11-19T01:46:27;101739.88;;;7.23;84.61
74370;BME280;71062;44.520;11.342;2023-11-19T01:48:53;101745.06;;;7.38;84.02
74370;BME280;71062;44.520;11.342;2023-11-19T01:51:19;101731.59;;;7.46;82.60
74370;BME280;71062;44.520;11.342;2023-11-19T01:53:48;101740.13;;;7.81;80.55
74370;BME280;71062;44.520;11.342;2023-11-19T01:56:15;101736.44;;;7.39;83.43
74370;BME280;71062;44.520;11.342;2023-11-19T01:58:43;101728.84;;;7.28;83.00
74370;BME280;71062;44.520;11.342;2023-11-19T02:01:10;101739.72;;;7.36;83.62
74370;BME280;71062;44.520;11.342;2023-11-19T02:03:39;101717.25;;;7.25;83.04
74370;BME280;71062;44.520;11.342;2023-11-19T02:06:05;101728.06;;;7.21;85.57
74370;BME280;71062;44.520;11.342;2023-11-19T02:08:31;101706.19;;;7.00;85.92
74370;BME280;71062;44.520;11.342;2023-11-19T02:10:57;101713.78;;;7.29;84.50
74370;BME280;71062;44.520;11.342;2023-11-19T02:13:25;101724.69;;;7.01;87.55
74370;BME280;71062;44.520;11.342;2023-11-19T02:15:51;101708.75;;;6.84;87.13
74370;BME280;71062;44.520;11.342;2023-11-19T02:20:44;101646.72;;;6.93;83.75
74370;BME280;71062;44.520;11.342;2023-11-19T02:23:10;101713.56;;;7.42;83.88
74370;BME280;71062;44.520;11.342;2023-11-19T02:25:36;101701.69;;;6.99;86.12
74370;BME280;71062;44.520;11.342;2023-11-19T02:28:03;101668.50;;;6.73;87.50
74370;BME280;71062;44.520;11.342;2023-11-19T02:30:31;101688.78;;;6.98;87.45
74370;BME280;71062;44.520;11.342;2023-11-19T02:33:00;101687.47;;;7.01;87.49
74370;BME280;71062;44.520;11.342;2023-11-19T02:35:31;101688.50;;;7.06;86.15
74370;BME280;71062;44.520;11.342;2023-11-19T02:37:58;101671.38;;;7.14;86.24
74370;BME280;71062;44.520;11.342;2023-11-19T02:40:34;101672.97;;;7.10;86.63
74370;BME280;71062;44.520;11.342;2023-11-19T02:43:00;101672.03;;;6.98;88.09
74370;BME280;71062;44.520;11.342;2023-11-19T02:45:26;101667.38;;;6.92;86.58
74370;BME280;71062;44.520;11.342;2023-11-19T02:47:53;101670.56;;;7.14;86.70
74370;BME280;71062;44.520;11.342;2023-11-19T02:50:20;101661.59;;;7.05;87.63
74370;BME280;71062;44.520;11.342;2023-11-19T02:52:54;101662.28;;;6.89;86.86
74370;BME280;71062;44.520;11.342;2023-11-19T02:55:22;101665.22;;;6.94;86.85
74370;BME280;71062;44.520;11.342;2023-11-19T02:57:50;101647.19;;;6.90;87.76
74370;BME280;71062;44.520;11.342;2023-11-19T03:00:18;101639.16;;;6.82;88.51
74370;BME280;71062;44.520;11.342;2023-11-19T03:02:45;101646.97;;;6.92;87.68
74370;BME280;71062;44.520;11.342;2023-11-19T03:05:19;101641.31;;;6.80;88.01
74370;BME280;71062;44.520;11.342;2023-11-19T03:07:45;101649.38;;;6.88;87.44
74370;BME280;71062;44.520;11.342;2023-11-19T03:10:11;101649.06;;;6.78;88.16
74370;BME280;71062;44.520;11.342;2023-11-19T03:12:44;101643.50;;;6.78;89.09
74370;BME280;71062;44.520;11.342;2023-11-19T03:15:11;101635.00;;;7.03;87.25
74370;BME280;71062;44.520;11.342;2023-11-19T03:17:40;101617.91;;;6.63;88.90
74370;BME280;71062;44.520;11.342;2023-11-19T03:20:08;101637.28;;;6.58;89.65
74370;BME280;71062;44.520;11.342;2023-11-19T03:22:43;101642.25;;;6.74;88.51
74370;BME280;71062;44.520;11.342;2023-11-19T03:25:12;101631.41;;;6.66;88.83
74370;BME280;71062;44.520;11.342;2023-11-19T03:27:39;101617.56;;;6.53;89.78
74370;BME280;71062;44.520;11.342;2023-11-19T03:30:08;101598.34;;;6.45;88.80
74370;BME280;71062;44.520;11.342;2023-11-19T03:32:37;101627.19;;;6.57;90.90
74370;BME280;71062;44.520;11.342;2023-11-19T03:35:05;101615.31;;;6.61;88.55
74370;BME280;71062;44.520;11.342;2023-11-19T03:37:32;101627.06;;;6.52;89.97
74370;BME280;71062;44.520;11.342;2023-11-19T03:39:58;101626.72;;;6.60;89.94
74370;BME280;71062;44.520;11.342;2023-11-19T03:42:26;101621.16;;;6.42;91.25
74370;BME280;71062;44.520;11.342;2023-11-19T03:44:53;101634.56;;;6.51;90.19
74370;BME280;71062;44.520;11.342;2023-11-19T03:47:19;101626.97;;;6.58;91.46
74370;BME280;71062;44.520;11.342;2023-11-19T03:49:51;101623.94;;;6.60;90.30
74370;BME280;71062;44.520;11.342;2023-11-19T03:52:19;101619.06;;;6.37;90.63
74370;BME280;71062;44.520;11.342;2023-11-19T03:54:46;101604.72;;;6.16;91.24
74370;BME280;71062;44.520;11.342;2023-11-19T03:57:14;101624.56;;;6.44;90.37
74370;BME280;71062;44.520;11.342;2023-11-19T03:59:41;101578.63;;;6.04;92.43
74370;BME280;71062;44.520;11.342;2023-11-19T04:02:07;101574.44;;;5.95;93.68
74370;BME280;71062;44.520;11.342;2023-11-19T04:04:33;101583.28;;;6.10;92.86
74370;BME280;71062;44.520;11.342;2023-11-19T04:07:00;101588.88;;;6.10;93.30
74370;BME280;71062;44.520;11.342;2023-11-19T04:09:26;101607.34;;;6.29;94.23
74370;BME280;71062;44.520;11.342;2023-11-19T04:11:52;101612.69;;;6.30;93.66
74370;BME280;71062;44.520;11.342;2023-11-19T04:14:17;101623.78;;;6.37;93.20
74370;BME280;71062;44.520;11.342;2023-11-19T04:16:44;101633.03;;;6.55;92.07
74370;BME280;71062;44.520;11.342;2023-11-19T04:19:13;101577.00;;;5.96;92.62
74370;BME280;71062;44.520;11.342;2023-11-19T04:21:41;101597.56;;;6.02;93.19
74370;BME280;71062;44.520;11.342;2023-11-19T04:24:11;101643.00;;;6.27;93.58
74370;BME280;71062;44.520;11.342;2023-11-19T04:26:43;101639.16;;;6.28;93.55
74370;BME280;71062;44.520;11.342;2023-11-19T04:29:14;101639.47;;;6.38;94.09
74370;BME280;71062;44.520;11.342;2023-11-19T04:31:43;101630.31;;;6.31;93.81
74370;BME280;71062;44.520;11.342;2023-11-19T04:34:12;101634.63;;;6.27;94.60
74370;BME280;71062;44.520;11.342;2023-11-19T04:36:38;101627.03;;;6.34;94.47
74370;BME280;71062;44.520;11.342;2023-11-19T04:39:04;101616.81;;;6.46;93.64
74370;BME280;71062;44.520;11.342;2023-11-19T04:41:50;101614.97;;;6.40;93.17
74370;BME280;71062;44.520;11.342;2023-11-19T04:44:17;101607.13;;;6.12;94.64
74370;BME280;71062;44.520;11.342;2023-11-19T04:46:43;101622.22;;;6.23;95.03
74370;BME280;71062;44.520;11.342;2023-11-19T04:49:10;101617.00;;;6.26;95.50
74370;BME280;71062;44.520;11.342;2023-11-19T04:51:45;101625.19;;;6.28;95.72
74370;BME280;71062;44.520;11.342;2023-11-19T04:54:14;101611.19;;;6.10;95.59
74370;BME280;71062;44.520;11.342;2023-11-19T04:56:40;101611.22;;;6.46;94.05
74370;BME280;71062;44.520;11.342;2023-11-19T04:59:06;101584.53;;;6.50;92.38
74370;BME280;71062;44.520;11.342;2023-11-19T05:01:33;101605.09;;;6.55;92.55
74370;BME280;71062;44.520;11.342;2023-11-19T05:03:59;101598.50;;;6.68;91.99
74370;BME280;71062;44.520;11.342;2023-11-19T05:06:31;101565.63;;;6.52;91.66
74370;BME280;71062;44.520;11.342;2023-11-19T05:08:58;101592.44;;;6.71;92.33
74370;BME280;71062;44.520;11.342;2023-11-19T05:11:30;101578.56;;;6.28;94.38
74370;BME280;71062;44.520;11.342;2023-11-19T05:13:56;101596.78;;;6.67;92.63
74370;BME280;71062;44.520;11.342;2023-11-19T05:16:22;101574.13;;;6.57;91.94
74370;BME280;71062;44.520;11.342;2023-11-19T05:18:47;101574.63;;;6.54;90.91
74370;BME280;71062;44.520;11.342;2023-11-19T05:21:14;101558.63;;;6.43;90.96
74370;BME280;71062;44.520;11.342;2023-11-19T05:23:39;101563.22;;;6.55;90.55
74370;BME280;71062;44.520;11.342;2023-11-19T05:26:07;101569.03;;;6.54;90.64
74370;BME280;71062;44.520;11.342;2023-11-19T05:28:32;101576.59;;;6.65;90.57
74370;BME280;71062;44.520;11.342;2023-11-19T05:30:58;101569.94;;;6.66;90.81
74370;BME280;71062;44.520;11.342;2023-11-19T05:33:23;101573.25;;;6.74;90.84
74370;BME280;71062;44.520;11.342;2023-11-19T05:35:49;101570.44;;;6.63;91.47
74370;BME280;71062;44.520;11.342;2023-11-19T05:38:15;101572.25;;;6.69;91.04
74370;BME280;71062;44.520;11.342;2023-11-19T05:40:41;101568.69;;;6.80;90.41
74370;BME280;71062;44.520;11.342;2023-11-19T05:43:07;101566.03;;;6.85;89.88
74370;BME280;71062;44.520;11.342;2023-11-19T05:45:32;101560.31;;;6.62;92.69
74370;BME280;71062;44.520;11.342;2023-11-19T05:47:58;101545.16;;;6.40;93.78
74370;BME280;71062;44.520;11.342;2023-11-19T05:50:24;101549.78;;;6.46;92.55
74370;BME280;71062;44.520;11.342;2023-11-19T05:52:50;101539.72;;;6.27;93.53
74370;BME280;71062;44.520;11.342;2023-11-19T05:55:18;101548.63;;;6.35;95.48
74370;BME280;71062;44.520;11.342;2023-11-19T05:57:44;101538.47;;;6.23;94.25
74370;BME280;71062;44.520;11.342;2023-11-19T06:00:10;101559.25;;;6.45;93.26
74370;BME280;71062;44.520;11.342;2023-11-19T06:02:42;101544.81;;;6.30;92.74
74370;BME280;71062;44.520;11.342;2023-11-19T06:05:08;101549.34;;;6.49;93.79
74370;BME280;71062;44.520;11.342;2023-11-19T06:07:35;101542.25;;;6.64;91.33
74370;BME280;71062;44.520;11.342;2023-11-19T06:10:05;101541.66;;;6.74;89.88
74370;BME280;71062;44.520;11.342;2023-11-19T06:12:33;101531.34;;;6.74;89.64
74370;BME280;71062;44.520;11.342;2023-11-19T06:15:07;101539.84;;;6.50;92.00
74370;BME280;71062;44.520;11.342;2023-11-19T06:17:34;101541.94;;;6.54;93.08
74370;BME280;71062;44.520;11.342;2023-11-19T06:20:00;101534.38;;;6.43;92.22
74370;BME280;71062;44.520;11.342;2023-11-19T06:22:25;101539.38;;;6.53;95.53
74370;BME280;71062;44.520;11.342;2023-11-19T06:24:51;101520.44;;;6.55;96.29
74370;BME280;71062;44.520;11.342;2023-11-19T06:27:17;101544.53;;;6.56;93.40
74370;BME280;71062;44.520;11.342;2023-11-19T06:29:43;101529.88;;;6.24;95.96
74370;BME280;71062;44.520;11.342;2023-11-19T06:32:09;101522.66;;;6.17;95.88
74370;BME280;71062;44.520;11.342;2023-11-19T06:34:34;101523.44;;;6.24;94.61
74370;BME280;71062;44.520;11.342;2023-11-19T06:37:00;101537.41;;;6.42;94.01
74370;BME280;71062;44.520;11.342;2023-11-19T06:39:28;101517.09;;;6.17;93.58
74370;BME280;71062;44.520;11.342;2023-11-19T06:41:54;101521.50;;;6.06;95.83
74370;BME280;71062;44.520;11.342;2023-11-19T06:44:19;101526.06;;;6.01;97.42
74370;BME280;71062;44.520;11.342;2023-11-19T06:46:45;101556.63;;;6.32;94.89
74370;BME280;71062;44.520;11.342;2023-11-19T06:49:12;101536.25;;;6.13;94.78
74370;BME280;71062;44.520;11.342;2023-11-19T06:51:42;101524.00;;;5.96;97.04
74370;BME280;71062;44.520;11.342;2023-11-19T06:54:09;101561.59;;;6.12;97.89
74370;BME280;71062;44.520;11.342;2023-11-19T06:56:34;101558.03;;;6.05;100.00
74370;BME280;71062;44.520;11.342;2023-11-19T06:59:00;101573.03;;;6.04;98.62
74370;BME280;71062;44.520;11.342;2023-11-19T07:01:25;101555.81;;;5.89;99.61
74370;BME280;71062;44.520;11.342;2023-11-19T07:03:51;101568.59;;;6.21;99.93
74370;BME280;71062;44.520;11.342;2023-11-19T07:06:17;101553.50;;;6.04;98.37
74370;BME280;71062;44.520;11.342;2023-11-19T07:08:43;101568.03;;;6.30;99.04
74370;BME280;71062;44.520;11.342;2023-11-19T07:11:13;101550.78;;;6.33;97.30
74370;BME280;71062;44.520;11.342;2023-11-19T07:13:43;101544.28;;;6.39;98.11
74370;BME280;71062;44.520;11.342;2023-11-19T07:16:09;101516.47;;;6.33;97.14
74370;BME280;71062;44.520;11.342;2023-11-19T07:18:37;101531.34;;;6.45;97.90
74370;BME280;71062;44.520;11.342;2023-11-19T07:21:04;101563.78;;;6.75;97.10
74370;BME280;71062;44.520;11.342;2023-11-19T07:23:30;101572.69;;;6.84;96.33
74370;BME280;71062;44.520;11.342;2023-11-19T07:25:56;101565.78;;;7.16;99.16
74370;BME280;71062;44.520;11.342;2023-11-19T07:28:27;101569.19;;;7.18;95.60
74370;BME280;71062;44.520;11.342;2023-11-19T07:30:54;101568.38;;;7.29;93.29
74370;BME280;71062;44.520;11.342;2023-11-19T07:33:21;101572.25;;;7.28;93.84
74370;BME280;71062;44.520;11.342;2023-11-19T07:35:48;101578.25;;;7.43;93.42
74370;BME280;71062;44.520;11.342;2023-11-19T07:38:14;101585.59;;;7.67;93.16
74370;BME280;71062;44.520;11.342;2023-11-19T07:40:39;101590.94;;;7.80;93.29
74370;BME280;71062;44.520;11.342;2023-11-19T07:43:05;101574.28;;;7.85;94.83
74370;BME280;71062;44.520;11.342;2023-11-19T07:45:32;101586.19;;;7.92;91.65
74370;BME280;71062;44.520;11.342;2023-11-19T07:47:58;101592.69;;;8.05;93.56
74370;BME280;71062;44.520;11.342;2023-11-19T07:50:24;101593.25;;;8.07;90.68
74370;BME280;71062;44.520;11.342;2023-11-19T07:52:50;101590.59;;;8.12;90.76
74370;BME280;71062;44.520;11.342;2023-11-19T07:55:16;101609.13;;;8.36;90.27
74370;BME280;71062;44.520;11.342;2023-11-19T07:57:42;101588.63;;;8.47;89.28
74370;BME280;71062;44.520;11.342;2023-11-19T08:00:08;101605.19;;;8.60;88.94
74370;BME280;71062;44.520;11.342;2023-11-19T08:02:38;101615.84;;;8.86;88.09
74370;BME280;71062;44.520;11.342;2023-11-19T08:05:04;101601.91;;;8.91;87.70
74370;BME280;71062;44.520;11.342;2023-11-19T08:07:30;101616.47;;;9.16;85.90
74370;BME280;71062;44.520;11.342;2023-11-19T08:09:56;101622.97;;;9.33;85.28
74370;BME280;71062;44.520;11.342;2023-11-19T08:12:22;101621.28;;;9.49;83.56
74370;BME280;71062;44.520;11.342;2023-11-19T08:14:48;101612.97;;;9.54;85.12
74370;BME280;71062;44.520;11.342;2023-11-19T08:17:14;101616.91;;;9.69;84.37
74370;BME280;71062;44.520;11.342;2023-11-19T08:19:41;101621.50;;;9.75;83.07
74370;BME280;71062;44.520;11.342;2023-11-19T08:22:07;101591.06;;;9.67;82.86
74370;BME280;71062;44.520;11.342;2023-11-19T08:24:32;101609.25;;;9.81;82.59
74370;BME280;71062;44.520;11.342;2023-11-19T08:26:58;101612.00;;;10.09;80.88
74370;BME280;71062;44.520;11.342;2023-11-19T08:29:23;101618.47;;;10.27;80.08
74370;BME280;71062;44.520;11.342;2023-11-19T08:31:50;101605.50;;;10.26;80.66
74370;BME280;71062;44.520;11.342;2023-11-19T08:34:15;101603.16;;;10.18;81.13
74370;BME280;71062;44.520;11.342;2023-11-19T08:36:41;101609.47;;;10.46;79.95
74370;BME280;71062;44.520;11.342;2023-11-19T08:39:06;101614.13;;;10.57;77.74
74370;BME280;71062;44.520;11.342;2023-11-19T08:41:33;101616.44;;;10.82;75.68
74370;BME280;71062;44.520;11.342;2023-11-19T08:43:59;101609.47;;;10.84;75.52
74370;BME280;71062;44.520;11.342;2023-11-19T08:46:25;101613.03;;;10.80;73.84
74370;BME280;71062;44.520;11.342;2023-11-19T08:48:51;101616.06;;;10.95;73.55
74370;BME280;71062;44.520;11.342;2023-11-19T08:51:17;101622.94;;;10.82;73.37
74370;BME280;71062;44.520;11.342;2023-11-19T08:53:43;101599.75;;;10.97;72.66
74370;BME280;71062;44.520;11.342;2023-11-19T08:56:11;101611.22;;;11.12;72.19
74370;BME280;71062;44.520;11.342;2023-11-19T08:58:37;101624.19;;;11.40;67.64
74370;BME280;71062;44.520;11.342;2023-11-19T09:01:02;101579.25;;;11.23;65.98
74370;BME280;71062;44.520;11.342;2023-11-19T09:03:31;101596.06;;;11.18;62.98
74370;BME280;71062;44.520;11.342;2023-11-19T09:05:57;101606.66;;;11.33;63.33
74370;BME280;71062;44.520;11.342;2023-11-19T09:08:22;101613.28;;;11.48;62.61
74370;BME280;71062;44.520;11.342;2023-11-19T09:10:48;101613.66;;;11.83;60.92
74370;BME280;71062;44.520;11.342;2023-11-19T09:13:14;101599.19;;;12.01;57.84
74370;BME280;71062;44.520;11.342;2023-11-19T09:15:40;101611.44;;;12.17;57.91
74370;BME280;71062;44.520;11.342;2023-11-19T09:18:07;101614.19;;;12.07;58.74
74370;BME280;71062;44.520;11.342;2023-11-19T09:20:33;101612.00;;;12.19;59.77
74370;BME280;71062;44.520;11.342;2023-11-19T09:23:04;101601.72;;;12.40;55.01
74370;BME280;71062;44.520;11.342;2023-11-19T09:25:30;101603.28;;;12.20;57.83
74370;BME280;71062;44.520;11.342;2023-11-19T09:27:56;101614.94;;;11.97;58.56
74370;BME280;71062;44.520;11.342;2023-11-19T09:30:21;101607.69;;;12.06;55.32
74370;BME280;71062;44.520;11.342;2023-11-19T09:32:48;101602.41;;;12.20;56.05
74370;BME280;71062;44.520;11.342;2023-11-19T09:35:13;101617.53;;;12.46;55.54
74370;BME280;71062;44.520;11.342;2023-11-19T09:37:40;101601.16;;;12.43;54.88
74370;BME280;71062;44.520;11.342;2023-11-19T09:40:06;101611.91;;;12.46;55.13
74370;BME280;71062;44.520;11.342;2023-11-19T09:42:44;101618.63;;;12.40;56.90
74370;BME280;71062;44.520;11.342;2023-11-19T09:45:17;101611.09;;;12.08;58.14
74370;BME280;71062;44.520;11.342;2023-11-19T09:47:46;101607.75;;;12.16;58.23
74370;BME280;71062;44.520;11.342;2023-11-19T09:50:21;101601.63;;;12.24;57.92
74370;BME280;71062;44.520;11.342;2023-11-19T09:52:47;101610.56;;;12.16;57.82
74370;BME280;71062;44.520;11.342;2023-11-19T09:55:13;101585.38;;;12.00;58.02
74370;BME280;71062;44.520;11.342;2023-11-19T09:57:39;101580.41;;;11.80;57.49
74370;BME280;71062;44.520;11.342;2023-11-19T10:00:07;101604.94;;;12.16;57.81
74370;BME280;71062;44.520;11.342;2023-11-19T10:02:33;101615.72;;;12.24;56.33
74370;BME280;71062;44.520;11.342;2023-11-19T10:05:04;101614.91;;;12.29;56.14
74370;BME280;71062;44.520;11.342;2023-11-19T10:07:31;101608.59;;;12.59;55.68
74370;BME280;71062;44.520;11.342;2023-11-19T10:09:59;101595.38;;;12.64;53.96
74370;BME280;71062;44.520;11.342;2023-11-19T10:12:26;101600.72;;;12.61;54.12
74370;BME280;71062;44.520;11.342;2023-11-19T10:14:55;101595.75;;;12.83;52.93
74370;BME280;71062;44.520;11.342;2023-11-19T10:17:21;101598.75;;;13.13;53.13
74370;BME280;71062;44.520;11.342;2023-11-19T10:19:47;101595.34;;;13.11;51.40
74370;BME280;71062;44.520;11.342;2023-11-19T10:22:14;101581.59;;;12.68;52.10
74370;BME280;71062;44.520;11.342;2023-11-19T10:24:42;101587.78;;;12.65;51.44
74370;BME280;71062;44.520;11.342;2023-11-19T10:27:07;101570.50;;;12.56;52.41
74370;BME280;71062;44.520;11.342;2023-11-19T10:29:39;101581.31;;;12.74;53.28
74370;BME280;71062;44.520;11.342;2023-11-19T10:32:04;101556.78;;;12.75;53.16
74370;BME280;71062;44.520;11.342;2023-11-19T10:34:30;101571.50;;;12.82;53.63
74370;BME280;71062;44.520;11.342;2023-11-19T10:36:56;101561.38;;;12.86;52.60
74370;BME280;71062;44.520;11.342;2023-11-19T10:39:21;101569.34;;;13.04;52.28
74370;BME280;71062;44.520;11.342;2023-11-19T10:41:50;101570.50;;;13.08;51.75
74370;BME280;71062;44.520;11.342;2023-11-19T10:44:34;101563.78;;;13.34;51.77
74370;BME280;71062;44.520;11.342;2023-11-19T10:47:01;101562.13;;;13.43;49.92
74370;BME280;71062;44.520;11.342;2023-11-19T10:49:26;101567.78;;;13.63;49.70
74370;BME280;71062;44.520;11.342;2023-11-19T10:51:53;101556.47;;;13.33;50.14
74370;BME280;71062;44.520;11.342;2023-11-19T10:54:22;101562.66;;;13.40;50.13
74370;BME280;71062;44.520;11.342;2023-11-19T10:56:54;101557.28;;;13.43;49.96
74370;BME280;71062;44.520;11.342;2023-11-19T10:59:21;101555.34;;;13.49;48.55
74370;BME280;71062;44.520;11.342;2023-11-19T11:01:48;101548.88;;;13.64;49.26
74370;BME280;71062;44.520;11.342;2023-11-19T11:04:20;101543.50;;;13.72;47.88
74370;BME280;71062;44.520;11.342;2023-11-19T11:06:48;101559.31;;;13.63;46.62
74370;BME280;71062;44.520;11.342;2023-11-19T11:09:16;101539.00;;;13.76;47.45
74370;BME280;71062;44.520;11.342;2023-11-19T11:11:46;101540.94;;;13.81;47.25
74370;BME280;71062;44.520;11.342;2023-11-19T11:14:13;101526.22;;;14.14;47.98
74370;BME280;71062;44.520;11.342;2023-11-19T11:16:43;101529.03;;;15.08;45.78
74370;BME280;71062;44.520;11.342;2023-11-19T11:19:12;101533.72;;;15.71;42.12
74370;BME280;71062;44.520;11.342;2023-11-19T11:21:41;101516.44;;;16.01;41.66
74370;BME280;71062;44.520;11.342;2023-11-19T11:38:04;101509.81;;;17.66;37.55
74370;BME280;71062;44.520;11.342;2023-11-19T11:40:32;101502.44;;;17.65;38.40
74370;BME280;71062;44.520;11.342;2023-11-19T11:42:58;101487.63;;;18.14;38.82
74370;BME280;71062;44.520;11.342;2023-11-19T11:45:40;101474.94;;;17.93;37.61
74370;BME280;71062;44.520;11.342;2023-11-19T11:48:19;101468.81;;;17.86;36.23
74370;BME280;71062;44.520;11.342;2023-11-19T11:50:54;101475.38;;;17.67;34.79
74370;BME280;71062;44.520;11.342;2023-11-19T11:53:22;101487.06;;;17.66;33.21
74370;BME280;71062;44.520;11.342;2023-11-19T11:58:18;101467.41;;;18.15;33.63
74370;BME280;71062;44.520;11.342;2023-11-19T12:00:46;101459.88;;;18.51;33.91
74370;BME280;71062;44.520;11.342;2023-11-19T12:03:12;101452.44;;;19.05;33.92
74370;BME280;71062;44.520;11.342;2023-11-19T12:05:41;101453.00;;;19.29;34.74
74370;BME280;71062;44.520;11.342;2023-11-19T12:08:07;101409.19;;;19.25;33.58
74370;BME280;71062;44.520;11.342;2023-11-19T12:10:47;101447.75;;;19.22;33.67
74370;BME280;71062;44.520;11.342;2023-11-19T12:13:14;101457.09;;;18.19;35.22
74370;BME280;71062;44.520;11.342;2023-11-19T12:18:31;101417.41;;;17.96;34.76
74370;BME280;71062;44.520;11.342;2023-11-19T12:20:58;101451.22;;;18.43;35.51
74370;BME280;71062;44.520;11.342;2023-11-19T12:23:30;101444.00;;;19.00;36.72
74370;BME280;71062;44.520;11.342;2023-11-19T12:25:57;101425.13;;;18.90;37.50
74370;BME280;71062;44.520;11.342;2023-11-19T12:28:23;101439.03;;;19.41;37.10
74370;BME280;71062;44.520;11.342;2023-11-19T12:30:52;101434.75;;;18.80;36.62
74370;BME280;71062;44.520;11.342;2023-11-19T12:33:18;101436.59;;;18.99;36.76
74370;BME280;71062;44.520;11.342;2023-11-19T12:35:47;101411.09;;;19.29;36.14
74370;BME280;71062;44.520;11.342;2023-11-19T12:38:24;101434.63;;;19.79;35.26
74370;BME280;71062;44.520;11.342;2023-11-19T12:41:03;101430.75;;;19.75;34.26
74370;BME280;71062;44.520;11.342;2023-11-19T12:43:29;101422.13;;;19.44;35.24
74370;BME280;71062;44.520;11.342;2023-11-19T12:45:55;101419.53;;;20.09;34.63
74370;BME280;71062;44.520;11.342;2023-11-19T12:48:21;101411.16;;;20.13;35.57
74370;BME280;71062;44.520;11.342;2023-11-19T12:50:57;101406.25;;;20.35;35.86
74370;BME280;71062;44.520;11.342;2023-11-19T12:53:24;101406.84;;;19.93;36.75
74370;BME280;71062;44.520;11.342;2023-11-19T12:55:51;101388.22;;;19.65;36.96
74370;BME280;71062;44.520;11.342;2023-11-19T13:01:07;101396.81;;;19.43;38.51
74370;BME280;71062;44.520;11.342;2023-11-19T13:03:34;101397.25;;;19.36;38.61
74370;BME280;71062;44.520;11.342;2023-11-19T13:06:05;101372.31;;;19.42;38.25
74370;BME280;71062;44.520;11.342;2023-11-19T13:08:51;101391.13;;;19.73;38.36
74370;BME280;71062;44.520;11.342;2023-11-19T13:11:34;101378.41;;;19.49;38.29